Pittsburgh International Airport
KPIT : now visible

Airfield :











YOU CAN JOIN US ON...

 
LOGIN :

Register | Disclaimer

   EN    FR    IT 

 









Legend :    VFR   Marginal VFR   IFR   Intensive IFR   Very Intensive IFR
Visi :
Ceiling :
>= 8 km
>= 3000ft
5 to 8 km
1000 to 3000 ft
1500m to 5 km
500 to 1000 ft
800 to 1500m
200 to 500 ft
< 800m
< 200 ft
Symbols :   Thunderstorms  Fog  Heavy snow  Heavy precipitations  Wind > 20 kt







- Airport Elevation : 1203 ft
- IATA code : PIT


KPIT - Pittsburgh International

CURRENT METAR :
  • 151951Z 28023G30KT 10SM FEW035 BKN240 07/M07 A2969 RMK AO2 PK WND 28030/1951 SLP063 T00721072

EXPIRED METARs :
  • 151851Z 26015G27KT 10SM FEW034 SCT250 08/M07 A2965 RMK AO2 PK WND 29032/1825 SLP049 T00831072
  • 151751Z 27014G27KT 10SM FEW032 SCT250 09/M03 A2964 RMK AO2 PK WND 29028/1734 SLP047 60001 T00891028 10094 20072 50009

TAF KPIT
Valid from the 15 at 20:00 until the 17 at 00:00 UTC


151959Z 1520/1624 28020G30KT P6SM BKN250
FM160000 29010KT P6SM BKN250
FM160500 30006KT P6SM BKN035
FM161800 35005KT P6SM SCT250
KZOB FIR / North America



MET'MAP, your aeronautical weather chart ! - Copyright ORBIFLY December 2007 - Disclaimer

ORBIFLY MET'MAP TEAM :

Programming & Development : Alexandra Zaïnal
Concept & Development : Baudouin d'Aumeries
Co-Development & Prog : Marc-Olivier Méhu
Technical & hardware support : Manuel Goepfert

Contact : metmap@orbifly.com




SOURCES & CREDITS :

   NOAA       Earth
Advisory